KCRS

Details ICAO KCRS
Name C DAVID CAMPBELL FLD CORSICANA MUNI
Region United States
Timezone America/Chicago (UTC-5.0)
Plans Departing 4
Arriving 8
Stats Elevation 449 ft / 137 m (AMSL)
Location 32.028236° -96.401292°
Runways 2
Magnetic Variation 3.010° E
Sunrise 2018-05-23 11:25:02 UTC / 2018-05-23 06:25:02 Local
Sunset 2018-05-24 01:22:35 UTC / 2018-05-23 20:22:35 Local
Advertisement - Login to hide

Runways

ID Width Length Bearing (true) Bearing (mag) Surface Threshold Offset Overrun Length
02 75 ft / 23 m 3,208 ft / 978 m 21.90° 18.89° Grass 0 ft / 0 m 0 ft / 0 m
14 75 ft / 23 m 5,006 ft / 1,526 m 145.19° 142.18° Asphalt 0 ft / 0 m 0 ft / 0 m
20 75 ft / 23 m 3,208 ft / 978 m 201.90° 198.89° Grass 0 ft / 0 m 0 ft / 0 m
32 75 ft / 23 m 5,006 ft / 1,526 m 325.19° 322.18° Asphalt 0 ft / 0 m 0 ft / 0 m

Map

Weather


0- 5 10 15 20 25 30 35+ Temperature / ° C

Clouds and Precipitation
Forecast for 2018-05-24 00:00 UTC. Updated 5 hours ago

Ground ~20,000 ft ~40,000 ft Winds

METAR

KCRS 240353Z AUTO 16004KT 10SM CLR 23/20 A3007 RMK AO2 SLP176 T02280200

TAF

Not found

Frequencies

Recorded 120.67 MHz ASOS
Unicom 122.80 MHz CTAF/UNICOM
Warning: Do not use this data for real-world aviation or navigation. No guarantee of current accuracy is given.